This is the latest recevied weather packets stored in our database for station/object KC5TIL. If no packets are shown the sender has not sent any weather packets the latest 10 day(s).
| Time | Temp. | Humidity | Pressure | Rain* | Wind** | Luminosity | Snow |
|---|---|---|---|---|---|---|---|
| 1778089663 | 13.89° C | 84% | 1015.8 hPa | 0 mm | - | 275 W/m² | - |
| 1778089360 | 13.33° C | 85% | 1015.7 hPa | 0 mm | - | 272 W/m² | - |
| 1778089058 | 13.33° C | 86% | 1016 hPa | 0 mm | - | 208 W/m² | - |
| 1778088754 | 13.33° C | 86% | 1016.2 hPa | 0 mm | - | 136 W/m² | - |
| 1778088451 | 13.33° C | 86% | 1016.5 hPa | 0 mm | - | 110 W/m² | - |
| 1778088147 | 13.33° C | 86% | 1016.5 hPa | 0 mm | - | 110 W/m² | - |
| 1778087845 | 12.78° C | 87% | 1016.4 hPa | 0 mm | - | 117 W/m² | - |
| 1778087542 | 12.78° C | 87% | 1016.2 hPa | 0 mm | - | 169 W/m² | - |
| 1778087240 | 12.78° C | 88% | 1016.2 hPa | 0 mm | - | 121 W/m² | - |
| 1778086936 | 12.78° C | 88% | 1016.4 hPa | 0 mm | - | 134 W/m² | - |
| 1778086635 | 12.78° C | 88% | 1016.4 hPa | 0 mm | - | 110 W/m² | - |
| 1778086331 | 12.78° C | 88% | 1016.3 hPa | 0 mm | - | 84 W/m² | - |
| 1778086029 | 12.78° C | 87% | 1016.6 hPa | 0 mm | - | 70 W/m² | - |
| 1778085726 | 12.78° C | 88% | 1016.5 hPa | 0 mm | - | 67 W/m² | - |
| 1778085422 | 12.78° C | 87% | 1016.2 hPa | 0 mm | - | 63 W/m² | - |
| 1778085117 | 12.78° C | 88% | 1016.2 hPa | 0 mm | - | 96 W/m² | - |
| 1778084813 | 12.78° C | 88% | 1016.6 hPa | 0 mm | - | 75 W/m² | - |
| 1778084511 | 12.78° C | 88% | 1016.3 hPa | 0 mm | - | 89 W/m² | - |
| 1778084208 | 12.78° C | 87% | 1016.3 hPa | 0 mm | - | 89 W/m² | - |
| 1778083905 | 12.78° C | 87% | 1016.4 hPa | 0 mm | - | 116 W/m² | - |
| 1778083603 | 12.78° C | 87% | 1016.4 hPa | 0 mm | - | 142 W/m² | - |
| 1778083299 | 12.78° C | 88% | 1016.4 hPa | 0 mm | - | 131 W/m² | - |
| 1778082998 | 12.78° C | 87% | 1016.5 hPa | 0 mm | - | 249 W/m² | - |
| 1778082694 | 12.78° C | 88% | 1016.6 hPa | 0 mm | - | 133 W/m² | - |
| 1778081556 | 11.67° C | 92% | 1015.8 hPa | 0 mm | - | 322 W/m² | - |
* Rain latest hour (hover to see other rain measurements)
** Current wind speed in m/s (hover to see current wind gust speed)